createdAt,value
2019-01-24T05:32:40.378Z,37.67
2019-01-24T05:35:14.002Z,34.73
2019-01-24T05:37:46.659Z,37.67
2019-01-24T05:40:19.316Z,37.13
2019-01-24T05:42:51.951Z,37.10
2019-01-24T05:45:24.600Z,37.13
2019-01-24T05:47:57.239Z,38.03
2019-01-24T05:50:29.951Z,37.23
2019-01-24T05:53:02.641Z,38.00
2019-01-24T05:55:35.585Z,37.13
2019-01-24T05:58:08.224Z,35.13
2019-01-24T06:00:40.895Z,36.73
2019-01-24T06:03:13.527Z,37.93
2019-01-24T06:05:46.176Z,39.30
2019-01-24T06:08:19.115Z,37.50
2019-01-24T06:10:51.767Z,38.40
2019-01-24T06:13:24.406Z,37.40
2019-01-24T06:15:57.421Z,38.20
2019-01-24T06:18:30.069Z,36.30
2019-01-24T06:21:03.003Z,33.90
2019-01-24T06:23:35.651Z,33.63
2019-01-24T06:26:08.323Z,36.67
2019-01-24T06:28:40.964Z,36.67
2019-01-24T06:31:13.694Z,37.87
2019-01-24T06:33:46.347Z,38.00
2019-01-24T06:36:19.016Z,39.73
2019-01-24T06:38:51.703Z,37.07
2019-01-24T06:41:24.395Z,37.97
2019-01-24T06:43:57.047Z,38.60
2019-01-24T06:46:29.714Z,39.73
2019-01-24T06:49:02.355Z,39.93
2019-01-24T06:51:35.100Z,39.70
2019-01-24T06:54:07.754Z,37.93
2019-01-24T06:56:40.401Z,37.90
2019-01-24T06:59:13.046Z,37.33
2019-01-24T07:01:45.978Z,38.80
2019-01-24T07:04:18.894Z,39.70
2019-01-24T07:06:51.559Z,36.77
2019-01-24T07:09:24.280Z,36.43
2019-01-24T07:11:56.950Z,38.07
2019-01-24T07:14:29.578Z,36.47
2019-01-24T07:17:02.235Z,36.47
2019-01-24T07:19:34.919Z,36.47
2019-01-24T07:22:07.583Z,35.03
2019-01-24T07:24:40.242Z,37.70
2019-01-24T07:27:12.896Z,36.17
2019-01-24T07:29:45.530Z,38.50
2019-01-24T07:32:18.174Z,35.30
2019-01-24T07:34:50.811Z,34.40
2019-01-24T07:37:23.467Z,33.63
2019-01-24T07:39:56.131Z,35.47
2019-01-24T07:42:28.791Z,36.43
2019-01-24T07:45:01.439Z,37.17
2019-01-24T07:47:34.103Z,34.40
2019-01-24T07:50:08.542Z,36.03
2019-01-24T07:52:41.198Z,35.83
2019-01-24T07:55:13.895Z,36.60
2019-01-24T07:57:46.525Z,35.77
2019-01-24T08:00:21.496Z,38.33
2019-01-24T08:02:54.157Z,39.20
2019-01-24T08:05:27.204Z,39.70
2019-01-24T08:07:59.854Z,38.20
2019-01-24T08:10:32.511Z,39.80
2019-01-24T08:13:05.563Z,38.03
2019-01-24T08:15:38.288Z,37.17
2019-01-24T08:18:10.939Z,34.73
2019-01-24T08:20:44.086Z,37.03
2019-01-24T08:23:16.815Z,37.47
2019-01-24T08:25:49.466Z,38.23
2019-01-24T08:28:22.119Z,35.13
2019-01-24T08:30:54.807Z,37.97
2019-01-24T08:33:27.486Z,36.20
2019-01-24T08:36:00.176Z,37.13
2019-01-24T08:38:32.823Z,37.83
2019-01-24T08:41:05.482Z,38.70
2019-01-24T08:43:38.111Z,39.53
2019-01-24T08:46:10.759Z,38.73
2019-01-24T08:48:43.398Z,40.60
2019-01-24T08:51:16.042Z,38.47
2019-01-24T08:53:48.683Z,40.63
2019-01-24T08:56:21.334Z,39.30
2019-01-24T08:58:53.976Z,39.73
2019-01-24T09:01:26.640Z,41.27
2019-01-24T09:03:59.282Z,40.10
2019-01-24T09:06:32.311Z,41.20
2019-01-24T09:09:07.578Z,39.57
2019-01-24T09:11:40.234Z,38.77
2019-01-24T09:14:12.872Z,41.17
2019-01-24T09:16:45.539Z,41.33
2019-01-24T09:19:18.190Z,38.67
2019-01-24T09:21:50.847Z,39.30
2019-01-24T09:24:23.479Z,40.53
2019-01-24T09:26:56.460Z,39.47
2019-01-24T09:29:29.143Z,39.53
2019-01-24T09:32:01.794Z,38.97
2019-01-24T09:34:34.432Z,39.37
2019-01-24T09:37:07.083Z,39.40
2019-01-24T09:39:39.711Z,40.80
2019-01-24T09:42:12.366Z,41.57
2019-01-24T09:44:44.999Z,41.93
2019-01-24T09:47:17.668Z,42.07
2019-01-24T09:49:50.614Z,44.13
2019-01-24T09:52:23.323Z,44.40
2019-01-24T09:54:56.259Z,42.33
2019-01-24T09:57:28.915Z,42.60
2019-01-24T10:00:01.588Z,41.40
2019-01-24T10:02:34.247Z,43.70
2019-01-24T10:05:06.879Z,40.77
2019-01-24T10:07:39.536Z,41.47
2019-01-24T10:10:14.478Z,42.07
2019-01-24T10:12:47.156Z,42.70
2019-01-24T10:15:19.830Z,42.23
2019-01-24T10:17:52.493Z,45.47
2019-01-24T10:20:26.130Z,44.13
2019-01-24T10:22:58.782Z,42.97
2019-01-24T10:25:33.835Z,42.10
2019-01-24T10:28:07.131Z,42.97
2019-01-24T10:30:43.040Z,43.30
2019-01-24T10:33:14.533Z,41.17
2019-01-24T10:35:47.275Z,40.60
2019-01-24T10:38:20.263Z,41.40
2019-01-24T10:40:52.891Z,44.00
2019-01-24T10:43:25.598Z,43.27
2019-01-24T10:45:58.265Z,41.80
2019-01-24T10:48:31.223Z,40.10
2019-01-24T10:51:03.861Z,41.90
2019-01-24T10:53:36.518Z,41.63
2019-01-24T10:56:09.164Z,41.63
2019-01-24T10:58:42.103Z,41.90
2019-01-24T11:01:14.739Z,41.60
2019-01-24T11:03:47.395Z,41.60
2019-01-24T11:06:20.063Z,42.53
2019-01-24T11:08:52.717Z,40.33
2019-01-24T11:11:25.370Z,45.20
2019-01-24T11:13:58.022Z,44.07
2019-01-24T11:16:30.667Z,42.13
2019-01-24T11:19:03.349Z,43.77
2019-01-24T11:21:35.979Z,45.63
2019-01-24T11:24:08.622Z,43.50
2019-01-24T11:26:41.638Z,44.93
2019-01-24T11:29:14.317Z,43.97
2019-01-24T11:31:46.974Z,43.80
2019-01-24T11:34:19.627Z,43.70
2019-01-24T11:36:57.152Z,42.73
2019-01-24T11:39:28.047Z,43.97
2019-01-24T11:42:00.985Z,43.87
2019-01-24T11:44:33.903Z,44.97
2019-01-24T11:47:06.864Z,45.97
2019-01-24T11:49:39.511Z,45.43
2019-01-24T11:52:12.162Z,46.77
2019-01-24T11:54:44.807Z,46.17
2019-01-24T11:57:17.759Z,47.83
2019-01-24T11:59:50.459Z,44.13
2019-01-24T12:02:23.091Z,45.23
2019-01-24T12:04:55.743Z,44.60
2019-01-24T12:07:28.379Z,42.57
2019-01-24T12:10:01.043Z,46.47
2019-01-24T12:12:34.003Z,43.30
2019-01-24T12:15:08.766Z,44.40
2019-01-24T12:17:41.431Z,43.20
2019-01-24T12:20:16.044Z,42.23
2019-01-24T12:22:48.707Z,45.07
2019-01-24T12:25:21.480Z,43.07
2019-01-24T12:27:54.439Z,43.43
2019-01-24T12:30:28.916Z,43.27
2019-01-24T12:33:02.059Z,42.30
2019-01-24T12:35:34.717Z,42.10
2019-01-24T12:38:07.367Z,43.93
2019-01-24T12:40:40.019Z,43.43
2019-01-24T12:43:12.684Z,43.13
2019-01-24T12:45:45.619Z,43.00
2019-01-24T12:48:18.279Z,42.63
2019-01-24T12:50:50.960Z,43.53
2019-01-24T12:53:23.617Z,41.47
2019-01-24T12:55:56.283Z,42.93
2019-01-24T12:58:28.916Z,43.23
2019-01-24T13:01:01.555Z,41.87
2019-01-24T13:03:34.234Z,43.10
2019-01-24T13:06:06.879Z,41.07
2019-01-24T13:08:39.519Z,42.40
2019-01-24T13:11:12.171Z,41.93
2019-01-24T13:13:45.141Z,42.40
2019-01-24T13:16:17.829Z,44.03
2019-01-24T13:18:50.515Z,41.47
2019-01-24T13:21:23.478Z,42.23
2019-01-24T13:23:56.134Z,43.00
2019-01-24T13:26:29.046Z,43.10
2019-01-24T13:29:02.111Z,42.77
2019-01-24T13:31:34.887Z,43.57
2019-01-24T13:34:07.558Z,41.60
2019-01-24T13:36:40.210Z,40.97
2019-01-24T13:39:12.880Z,40.73
2019-01-24T13:41:45.521Z,43.80
2019-01-24T13:44:18.265Z,43.23
2019-01-24T13:46:51.039Z,40.83
2019-01-24T13:49:23.762Z,40.80
2019-01-24T13:51:56.683Z,43.50
2019-01-24T13:54:29.351Z,42.43
2019-01-24T13:57:01.991Z,41.27
2019-01-24T13:59:34.708Z,44.03
2019-01-24T14:02:07.475Z,43.90
2019-01-24T14:04:43.608Z,43.23
2019-01-24T14:07:16.292Z,42.07
2019-01-24T14:09:49.024Z,43.63
2019-01-24T14:12:21.767Z,41.47
2019-01-24T14:14:55.120Z,43.40
2019-01-24T14:17:27.843Z,42.33
2019-01-24T14:20:00.502Z,42.43
2019-01-24T14:22:33.260Z,43.40
2019-01-24T14:25:08.738Z,41.23
2019-01-24T14:27:41.612Z,42.30
2019-01-24T14:30:19.288Z,44.27
2019-01-24T14:32:51.957Z,42.17
2019-01-24T14:35:24.634Z,43.27
2019-01-24T14:37:57.590Z,44.77
2019-01-24T14:40:30.258Z,41.93
2019-01-24T14:43:02.935Z,41.70
2019-01-24T14:45:35.636Z,40.13
2019-01-24T14:48:08.608Z,42.40
2019-01-24T14:50:41.264Z,39.63
2019-01-24T14:53:13.898Z,40.67
2019-01-24T14:55:46.634Z,41.00
2019-01-24T14:58:19.297Z,40.87
2019-01-24T15:00:56.295Z,41.77
2019-01-24T15:03:28.970Z,41.27
2019-01-24T15:06:01.615Z,43.63
2019-01-24T15:08:34.247Z,41.10
2019-01-24T15:11:06.945Z,42.60
2019-01-24T15:13:39.902Z,42.10
2019-01-24T15:16:12.599Z,41.43
2019-01-24T15:18:45.270Z,40.40
2019-01-24T15:21:17.969Z,42.30
2019-01-24T15:23:50.660Z,40.50
2019-01-24T15:26:23.304Z,41.57
2019-01-24T15:28:55.945Z,40.57
2019-01-24T15:31:29.249Z,41.70
2019-01-24T15:34:01.899Z,41.43
2019-01-24T15:36:34.831Z,41.70
2019-01-24T15:39:08.107Z,44.13
2019-01-24T15:41:40.754Z,43.03
2019-01-24T15:44:13.425Z,43.37
2019-01-24T15:46:46.086Z,42.90
2019-01-24T15:49:18.743Z,43.90
2019-01-24T15:51:51.383Z,43.73
2019-01-24T15:54:24.033Z,42.70
2019-01-24T15:56:56.714Z,43.50
2019-01-24T15:59:29.364Z,44.00
2019-01-24T16:02:02.037Z,43.47
2019-01-24T16:04:34.743Z,43.73
2019-01-24T16:07:07.395Z,42.43
2019-01-24T16:09:40.556Z,41.63
2019-01-24T16:12:13.227Z,40.97
2019-01-24T16:14:45.870Z,41.07
2019-01-24T16:17:18.540Z,41.63
2019-01-24T16:19:51.183Z,42.43
2019-01-24T16:22:24.150Z,42.07
2019-01-24T16:24:56.832Z,42.90
2019-01-24T16:27:29.475Z,43.20
2019-01-24T16:30:02.128Z,40.87
2019-01-24T16:32:34.760Z,42.20
2019-01-24T16:35:08.411Z,42.20
2019-01-24T16:37:41.058Z,42.70
2019-01-24T16:40:15.110Z,41.03
2019-01-24T16:42:48.044Z,41.53
2019-01-24T16:45:22.715Z,41.03
2019-01-24T16:47:55.367Z,41.80
2019-01-24T16:50:28.088Z,39.40
2019-01-24T16:53:00.902Z,40.70
2019-01-24T16:55:33.623Z,40.97
2019-01-24T16:58:06.904Z,40.67
2019-01-24T17:00:48.605Z,41.00
2019-01-24T17:03:21.239Z,41.53
2019-01-24T17:05:53.895Z,42.40
2019-01-24T17:08:26.813Z,40.60
2019-01-24T17:10:59.470Z,42.00
2019-01-24T17:13:32.111Z,42.13
2019-01-24T17:16:04.852Z,42.23
2019-01-24T17:18:37.551Z,42.50
2019-01-24T17:21:10.263Z,41.10
2019-01-24T17:23:42.921Z,42.17
2019-01-24T17:26:15.573Z,40.30
2019-01-24T17:28:48.222Z,41.30
2019-01-24T17:31:20.881Z,43.00
2019-01-24T17:33:53.526Z,40.73
2019-01-24T17:36:26.186Z,41.13
2019-01-24T17:38:59.439Z,41.60
2019-01-24T17:41:32.095Z,41.53
2019-01-24T17:44:04.744Z,41.87
2019-01-24T17:46:37.412Z,41.00
2019-01-24T17:49:10.093Z,41.33
2019-01-24T17:51:42.751Z,42.93
2019-01-24T17:54:15.390Z,43.00
2019-01-24T17:56:48.063Z,42.40
2019-01-24T17:59:20.716Z,45.17
2019-01-24T18:01:53.367Z,40.83
2019-01-24T18:04:26.325Z,40.70
2019-01-24T18:06:58.992Z,41.03
2019-01-24T18:09:31.645Z,42.43
2019-01-24T18:12:04.301Z,43.33
2019-01-24T18:14:36.956Z,41.33
2019-01-24T18:17:09.635Z,40.90
2019-01-24T18:19:42.295Z,44.27
2019-01-24T18:22:14.947Z,42.23
2019-01-24T18:24:47.599Z,44.37
2019-01-24T18:27:20.254Z,41.50
2019-01-24T18:29:52.918Z,42.33
2019-01-24T18:32:25.583Z,42.97
2019-01-24T18:34:58.247Z,42.53
2019-01-24T18:37:31.180Z,43.73
2019-01-24T18:40:04.621Z,44.60
2019-01-24T18:42:37.304Z,42.30
2019-01-24T18:45:12.547Z,42.80
2019-01-24T18:47:45.223Z,42.63
2019-01-24T18:50:19.335Z,41.83
2019-01-24T18:52:52.008Z,41.27
2019-01-24T18:55:24.643Z,42.67
2019-01-24T18:57:57.321Z,43.70
2019-01-24T19:00:29.976Z,42.80
2019-01-24T19:03:02.839Z,44.20
2019-01-24T19:05:35.707Z,42.77
2019-01-24T19:08:08.659Z,43.03
2019-01-24T19:10:41.647Z,42.63
2019-01-24T19:13:14.299Z,41.43
2019-01-24T19:15:48.264Z,44.53
2019-01-24T19:18:20.923Z,40.73
2019-01-24T19:20:53.575Z,39.37
2019-01-24T19:23:26.254Z,44.23
2019-01-24T19:25:58.947Z,44.40
2019-01-24T19:28:31.914Z,41.67
2019-01-24T19:31:04.586Z,42.27
2019-01-24T19:33:37.254Z,43.23
2019-01-24T19:36:09.903Z,44.90
2019-01-24T19:38:42.852Z,43.27
2019-01-24T19:41:15.521Z,42.27
2019-01-24T19:43:48.177Z,41.43
2019-01-24T19:46:20.807Z,43.43
2019-01-24T19:48:53.456Z,42.93
2019-01-24T19:51:26.424Z,42.37
2019-01-24T19:53:59.119Z,42.67
2019-01-24T19:56:32.068Z,42.27
2019-01-24T19:59:04.728Z,45.20
2019-01-24T20:01:37.387Z,44.07
2019-01-24T20:04:10.031Z,41.23
2019-01-24T20:06:42.983Z,44.00
2019-01-24T20:09:15.639Z,43.90
2019-01-24T20:11:48.266Z,41.83
2019-01-24T20:14:20.915Z,41.23
2019-01-24T20:16:53.562Z,41.27
2019-01-24T20:19:26.239Z,42.67
2019-01-24T20:21:58.891Z,43.10
2019-01-24T20:24:31.553Z,43.60
2019-01-24T20:27:04.434Z,41.63
2019-01-24T20:29:37.111Z,42.97
2019-01-24T20:32:09.747Z,41.50
2019-01-24T20:34:42.407Z,41.80
2019-01-24T20:37:15.054Z,42.60
2019-01-24T20:39:47.699Z,41.23
2019-01-24T20:42:20.602Z,42.57
2019-01-24T20:44:53.264Z,42.53
2019-01-24T20:47:25.900Z,42.47
2019-01-24T20:49:58.564Z,43.43
2019-01-24T20:52:31.532Z,42.87
2019-01-24T20:55:05.415Z,40.77
2019-01-24T20:57:38.367Z,41.27
2019-01-24T21:00:16.344Z,41.83
2019-01-24T21:02:49.039Z,43.47
